HAZ3608 ZPPP-ZGSZ
Flight info
| Callsign | HAZ3608 |
|---|---|
| Flight time | 1h 14m |
| Altitude | 37100 |
| Route | LXI A599 POU W7 SAREX |
| Aircraft | A320/M-SDE3FGHIRWY/LB1 |
Departure
| Time | 2026-04-27 13:56 |
|---|---|
| Airport | Kunming Changshui International Airport (ZPPP) |
Arrival
| Time | 2026-04-27 15:10 |
|---|---|
| Airport | Shenzhen Bao'an International Airport (ZGSZ) |
| Time | Latitude | Longitude | Altitude | Speed | Heading |
|---|---|---|---|---|---|
| 2026-04-27 13:47 | 25.10237 | 102.93259 | 6896 ft | 0 kts | 9° |
| 2026-04-27 13:48 | 25.10227 | 102.93258 | 6897 ft | 2 kts | 15° |
| 2026-04-27 13:49 | 25.10212 | 102.93253 | 6897 ft | 2 kts | 24° |
| 2026-04-27 13:49 | 25.10197 | 102.93246 | 6897 ft | 2 kts | 29° |
| 2026-04-27 13:49 | 25.10183 | 102.93235 | 6897 ft | 2 kts | 51° |
| 2026-04-27 13:49 | 25.10174 | 102.93220 | 6898 ft | 2 kts | 77° |
| 2026-04-27 13:50 | 25.10174 | 102.93218 | 6898 ft | 0 kts | 80° |
| 2026-04-27 13:50 | 25.10172 | 102.93226 | 6897 ft | 5 kts | 97° |
| 2026-04-27 13:50 | 25.10156 | 102.93307 | 6897 ft | 11 kts | 104° |
| 2026-04-27 13:51 | 25.10143 | 102.93364 | 6897 ft | 6 kts | 104° |
| 2026-04-27 13:51 | 25.10131 | 102.93417 | 6897 ft | 10 kts | 104° |
| 2026-04-27 13:51 | 25.10097 | 102.93518 | 6897 ft | 18 kts | 122° |
| 2026-04-27 13:51 | 25.10056 | 102.93645 | 6897 ft | 20 kts | 53° |
| 2026-04-27 13:52 | 25.10176 | 102.93751 | 6897 ft | 26 kts | 38° |
| 2026-04-27 13:52 | 25.10325 | 102.93883 | 6897 ft | 29 kts | 39° |
| 2026-04-27 13:52 | 25.10482 | 102.94024 | 6898 ft | 28 kts | 38° |
| 2026-04-27 13:52 | 25.10634 | 102.94156 | 6897 ft | 27 kts | 38° |
| 2026-04-27 13:53 | 25.10898 | 102.94389 | 6897 ft | 22 kts | 38° |
| 2026-04-27 13:53 | 25.11008 | 102.94486 | 6897 ft | 18 kts | 39° |
| 2026-04-27 13:53 | 25.11089 | 102.94559 | 6897 ft | 11 kts | 39° |
| 2026-04-27 13:54 | 25.11136 | 102.94600 | 6897 ft | 9 kts | 39° |
| 2026-04-27 13:54 | 25.11223 | 102.94678 | 6898 ft | 24 kts | 39° |
| 2026-04-27 13:54 | 25.11379 | 102.94821 | 6897 ft | 29 kts | 40° |
| 2026-04-27 13:54 | 25.11537 | 102.94964 | 6898 ft | 30 kts | 37° |
| 2026-04-27 13:55 | 25.11707 | 102.95088 | 6897 ft | 29 kts | 34° |
| 2026-04-27 13:55 | 25.11738 | 102.95233 | 6897 ft | 22 kts | 130° |
| 2026-04-27 13:55 | 25.11635 | 102.95357 | 6897 ft | 20 kts | 161° |
| 2026-04-27 13:55 | 25.11568 | 102.95320 | 6897 ft | 10 kts | 214° |
| 2026-04-27 13:56 | 25.11426 | 102.95201 | 6898 ft | 60 kts | 218° |
| 2026-04-27 13:56 | 25.10872 | 102.94723 | 6897 ft | 138 kts | 218° |
| 2026-04-27 13:56 | 25.09962 | 102.93949 | 7108 ft | 180 kts | 218° |
| 2026-04-27 13:56 | 25.09025 | 102.93147 | 8178 ft | 179 kts | 218° |
| 2026-04-27 13:57 | 25.07980 | 102.92393 | 9150 ft | 180 kts | 214° |
| 2026-04-27 13:57 | 25.06890 | 102.91713 | 10118 ft | 180 kts | 213° |
| 2026-04-27 13:57 | 25.05783 | 102.91065 | 10912 ft | 180 kts | 212° |
| 2026-04-27 13:57 | 25.04611 | 102.90381 | 11250 ft | 201 kts | 213° |
| 2026-04-27 13:58 | 25.03421 | 102.89444 | 11513 ft | 221 kts | 230° |
| 2026-04-27 13:58 | 25.02260 | 102.88219 | 11827 ft | 245 kts | 216° |
| 2026-04-27 13:58 | 25.00551 | 102.87623 | 12312 ft | 273 kts | 187° |
| 2026-04-27 13:58 | 24.98638 | 102.88020 | 13105 ft | 291 kts | 160° |
| 2026-04-27 13:59 | 24.97487 | 102.88816 | 13659 ft | 301 kts | 143° |
| 2026-04-27 13:59 | 24.95909 | 102.91419 | 14680 ft | 314 kts | 114° |
| 2026-04-27 13:59 | 24.95336 | 102.92900 | 15075 ft | 324 kts | 118° |
| 2026-04-27 13:59 | 24.94264 | 102.95178 | 15426 ft | 347 kts | 122° |
| 2026-04-27 14:00 | 24.93010 | 102.97555 | 15724 ft | 371 kts | 123° |
| 2026-04-27 14:00 | 24.91644 | 103.00072 | 15916 ft | 394 kts | 123° |
| 2026-04-27 14:00 | 24.90219 | 103.02734 | 16294 ft | 411 kts | 122° |
| 2026-04-27 14:00 | 24.88782 | 103.05490 | 16966 ft | 418 kts | 122° |
| 2026-04-27 14:01 | 24.87355 | 103.08298 | 17680 ft | 423 kts | 121° |
| 2026-04-27 14:01 | 24.85933 | 103.11146 | 18367 ft | 427 kts | 121° |
| 2026-04-27 14:01 | 24.84509 | 103.14028 | 18951 ft | 431 kts | 121° |
| 2026-04-27 14:01 | 24.83125 | 103.16832 | 19538 ft | 434 kts | 121° |
| 2026-04-27 14:02 | 24.81675 | 103.19762 | 20738 ft | 433 kts | 119° |
| 2026-04-27 14:02 | 24.80230 | 103.22656 | 21618 ft | 431 kts | 119° |
| 2026-04-27 14:02 | 24.78776 | 103.25550 | 22288 ft | 433 kts | 119° |
| 2026-04-27 14:02 | 24.77304 | 103.28473 | 22597 ft | 448 kts | 120° |
| 2026-04-27 14:03 | 24.75758 | 103.31545 | 22719 ft | 470 kts | 120° |
| 2026-04-27 14:03 | 24.74141 | 103.34758 | 22849 ft | 490 kts | 120° |
| 2026-04-27 14:03 | 24.72460 | 103.38098 | 22978 ft | 508 kts | 120° |
| 2026-04-27 14:03 | 24.70718 | 103.41555 | 23117 ft | 525 kts | 120° |
| 2026-04-27 14:04 | 24.68930 | 103.45101 | 23457 ft | 534 kts | 120° |
| 2026-04-27 14:04 | 24.67121 | 103.48690 | 23923 ft | 539 kts | 120° |
| 2026-04-27 14:04 | 24.65297 | 103.52307 | 24415 ft | 543 kts | 120° |
| 2026-04-27 14:04 | 24.63464 | 103.55945 | 24905 ft | 546 kts | 120° |
| 2026-04-27 14:05 | 24.61614 | 103.59613 | 25313 ft | 551 kts | 120° |
| 2026-04-27 14:05 | 24.59749 | 103.63302 | 25824 ft | 553 kts | 120° |
| 2026-04-27 14:05 | 24.57874 | 103.67004 | 26317 ft | 556 kts | 120° |
| 2026-04-27 14:05 | 24.55995 | 103.70725 | 26782 ft | 559 kts | 118° |
| 2026-04-27 14:06 | 24.54372 | 103.74615 | 27228 ft | 562 kts | 110° |
| 2026-04-27 14:06 | 24.53212 | 103.78709 | 27646 ft | 563 kts | 101° |
| 2026-04-27 14:06 | 24.52340 | 103.82909 | 28042 ft | 566 kts | 100° |
| 2026-04-27 14:06 | 24.51462 | 103.87134 | 28383 ft | 570 kts | 101° |
| 2026-04-27 14:07 | 24.50568 | 103.91382 | 28740 ft | 573 kts | 101° |
| 2026-04-27 14:07 | 24.49657 | 103.95649 | 29130 ft | 575 kts | 101° |
| 2026-04-27 14:07 | 24.48736 | 103.99925 | 29565 ft | 576 kts | 101° |
| 2026-04-27 14:07 | 24.47842 | 104.04055 | 30082 ft | 573 kts | 101° |
| 2026-04-27 14:08 | 24.46921 | 104.08304 | 30656 ft | 572 kts | 101° |
| 2026-04-27 14:08 | 24.46005 | 104.12538 | 31188 ft | 570 kts | 101° |
| 2026-04-27 14:08 | 24.45096 | 104.16764 | 31722 ft | 568 kts | 101° |
| 2026-04-27 14:08 | 24.44195 | 104.20982 | 32178 ft | 568 kts | 101° |
| 2026-04-27 14:09 | 24.43295 | 104.25205 | 32625 ft | 568 kts | 101° |
| 2026-04-27 14:09 | 24.42394 | 104.29417 | 33108 ft | 567 kts | 104° |
| 2026-04-27 14:09 | 24.41487 | 104.33623 | 33578 ft | 566 kts | 104° |
| 2026-04-27 14:09 | 24.40577 | 104.37821 | 34028 ft | 566 kts | 103° |
| 2026-04-27 14:10 | 24.39664 | 104.42026 | 34480 ft | 566 kts | 104° |
| 2026-04-27 14:10 | 24.38752 | 104.46230 | 34896 ft | 566 kts | 104° |
| 2026-04-27 14:10 | 24.37843 | 104.50428 | 35352 ft | 565 kts | 103° |
| 2026-04-27 14:10 | 24.36936 | 104.54605 | 35843 ft | 562 kts | 104° |
| 2026-04-27 14:11 | 24.36026 | 104.58776 | 36222 ft | 565 kts | 105° |
| 2026-04-27 14:11 | 24.35101 | 104.62998 | 36350 ft | 572 kts | 104° |
| 2026-04-27 14:11 | 24.34166 | 104.67260 | 36477 ft | 579 kts | 105° |
| 2026-04-27 14:11 | 24.33217 | 104.71579 | 36601 ft | 585 kts | 105° |
| 2026-04-27 14:12 | 24.32262 | 104.75935 | 36734 ft | 591 kts | 104° |
| 2026-04-27 14:12 | 24.31299 | 104.80331 | 36981 ft | 594 kts | 104° |
| 2026-04-27 14:12 | 24.30333 | 104.84737 | 37095 ft | 595 kts | 105° |
| 2026-04-27 14:13 | 24.28395 | 104.93549 | 37109 ft | 593 kts | 104° |
| 2026-04-27 14:13 | 24.26486 | 105.02207 | 37111 ft | 574 kts | 104° |
| 2026-04-27 14:13 | 24.25568 | 105.06355 | 37110 ft | 563 kts | 104° |
| 2026-04-27 14:14 | 24.24649 | 105.10507 | 37109 ft | 559 kts | 104° |
| 2026-04-27 14:14 | 24.22815 | 105.18763 | 37111 ft | 558 kts | 104° |
| 2026-04-27 14:15 | 24.20933 | 105.27032 | 37106 ft | 560 kts | 105° |
| 2026-04-27 14:15 | 24.18928 | 105.35261 | 37111 ft | 560 kts | 106° |
| 2026-04-27 14:16 | 24.16887 | 105.43490 | 37100 ft | 560 kts | 106° |
| 2026-04-27 14:16 | 24.14872 | 105.51728 | 37096 ft | 560 kts | 105° |
| 2026-04-27 14:17 | 24.12867 | 105.59966 | 37116 ft | 560 kts | 105° |
| 2026-04-27 14:17 | 24.10860 | 105.68192 | 37122 ft | 559 kts | 106° |
| 2026-04-27 14:18 | 24.08976 | 105.76433 | 37112 ft | 558 kts | 103° |
| 2026-04-27 14:18 | 24.07389 | 105.84747 | 37087 ft | 559 kts | 101° |
| 2026-04-27 14:19 | 24.05855 | 105.93088 | 37092 ft | 559 kts | 102° |
| 2026-04-27 14:19 | 24.04227 | 106.01401 | 37119 ft | 559 kts | 103° |
| 2026-04-27 14:20 | 24.02556 | 106.09576 | 37126 ft | 558 kts | 103° |
| 2026-04-27 14:20 | 24.00872 | 106.17849 | 37123 ft | 557 kts | 102° |
| 2026-04-27 14:21 | 23.99211 | 106.26129 | 37122 ft | 557 kts | 102° |
| 2026-04-27 14:21 | 23.97561 | 106.34403 | 37122 ft | 557 kts | 102° |
| 2026-04-27 14:22 | 23.95901 | 106.42668 | 37122 ft | 556 kts | 103° |
| 2026-04-27 14:22 | 23.94222 | 106.50924 | 37123 ft | 556 kts | 103° |
| 2026-04-27 14:23 | 23.92567 | 106.59177 | 37122 ft | 556 kts | 99° |
| 2026-04-27 14:23 | 23.91863 | 106.67516 | 37118 ft | 555 kts | 92° |
| 2026-04-27 14:24 | 23.91316 | 106.75922 | 37110 ft | 555 kts | 92° |
| 2026-04-27 14:24 | 23.90743 | 106.84334 | 37111 ft | 555 kts | 93° |
| 2026-04-27 14:25 | 23.90167 | 106.92740 | 37115 ft | 554 kts | 92° |
| 2026-04-27 14:25 | 23.89602 | 107.01134 | 37120 ft | 554 kts | 92° |
| 2026-04-27 14:26 | 23.89035 | 107.09543 | 37102 ft | 555 kts | 92° |
| 2026-04-27 14:26 | 23.88452 | 107.17956 | 37097 ft | 559 kts | 92° |
| 2026-04-27 14:27 | 23.87849 | 107.26567 | 37110 ft | 578 kts | 92° |
| 2026-04-27 14:27 | 23.87232 | 107.35410 | 37109 ft | 587 kts | 92° |
| 2026-04-27 14:28 | 23.86603 | 107.44313 | 37108 ft | 588 kts | 92° |
| 2026-04-27 14:28 | 23.85977 | 107.53157 | 37114 ft | 589 kts | 92° |
| 2026-04-27 14:29 | 23.85344 | 107.62080 | 37106 ft | 590 kts | 93° |
| 2026-04-27 14:29 | 23.84690 | 107.71012 | 37106 ft | 590 kts | 92° |
| 2026-04-27 14:30 | 23.84028 | 107.79943 | 37121 ft | 590 kts | 92° |
| 2026-04-27 14:30 | 23.83393 | 107.88872 | 37105 ft | 590 kts | 92° |
| 2026-04-27 14:31 | 23.82938 | 107.97827 | 37084 ft | 591 kts | 90° |
| 2026-04-27 14:31 | 23.82561 | 108.06812 | 37087 ft | 594 kts | 90° |
| 2026-04-27 14:32 | 23.82133 | 108.15833 | 37097 ft | 595 kts | 91° |
| 2026-04-27 14:32 | 23.81634 | 108.24861 | 37099 ft | 596 kts | 91° |
| 2026-04-27 14:33 | 23.81104 | 108.33899 | 37106 ft | 597 kts | 91° |
| 2026-04-27 14:33 | 23.80578 | 108.42943 | 37106 ft | 597 kts | 91° |
| 2026-04-27 14:34 | 23.80068 | 108.51938 | 37111 ft | 597 kts | 91° |
| 2026-04-27 14:34 | 23.79545 | 108.60989 | 37120 ft | 597 kts | 91° |
| 2026-04-27 14:35 | 23.79020 | 108.69944 | 37123 ft | 597 kts | 91° |
| 2026-04-27 14:35 | 23.78489 | 108.78985 | 37118 ft | 596 kts | 91° |
| 2026-04-27 14:36 | 23.77964 | 108.87859 | 37117 ft | 596 kts | 91° |
| 2026-04-27 14:36 | 23.77416 | 108.96897 | 37121 ft | 596 kts | 91° |
| 2026-04-27 14:37 | 23.76863 | 109.05923 | 37109 ft | 596 kts | 92° |
| 2026-04-27 14:37 | 23.76199 | 109.14937 | 37109 ft | 597 kts | 98° |
| 2026-04-27 14:38 | 23.74497 | 109.23799 | 37115 ft | 596 kts | 103° |
| 2026-04-27 14:38 | 23.72802 | 109.32194 | 37111 ft | 596 kts | 103° |
| 2026-04-27 14:39 | 23.71021 | 109.41032 | 37115 ft | 597 kts | 103° |
| 2026-04-27 14:39 | 23.69236 | 109.49876 | 37113 ft | 597 kts | 103° |
| 2026-04-27 14:40 | 23.67452 | 109.58655 | 37118 ft | 597 kts | 103° |
| 2026-04-27 14:40 | 23.65611 | 109.67634 | 37112 ft | 612 kts | 103° |
| 2026-04-27 14:41 | 23.63714 | 109.76792 | 37108 ft | 623 kts | 103° |
| 2026-04-27 14:41 | 23.61801 | 109.86029 | 37106 ft | 625 kts | 103° |
| 2026-04-27 14:42 | 23.59881 | 109.95286 | 37113 ft | 626 kts | 103° |
| 2026-04-27 14:42 | 23.58279 | 110.02987 | 37107 ft | 627 kts | 103° |
| 2026-04-27 14:43 | 23.56038 | 110.13730 | 37120 ft | 626 kts | 103° |
| 2026-04-27 14:43 | 23.54116 | 110.22919 | 37124 ft | 626 kts | 103° |
| 2026-04-27 14:44 | 23.52157 | 110.32220 | 37124 ft | 626 kts | 103° |
| 2026-04-27 14:44 | 23.50539 | 110.39894 | 37123 ft | 625 kts | 103° |
| 2026-04-27 14:45 | 23.48692 | 110.48913 | 37120 ft | 625 kts | 103° |
| 2026-04-27 14:45 | 23.46846 | 110.58154 | 37114 ft | 624 kts | 103° |
| 2026-04-27 14:46 | 23.44990 | 110.67391 | 37115 ft | 624 kts | 103° |
| 2026-04-27 14:46 | 23.43085 | 110.76622 | 37112 ft | 625 kts | 103° |
| 2026-04-27 14:47 | 23.41119 | 110.85827 | 37106 ft | 624 kts | 104° |
| 2026-04-27 14:47 | 23.39154 | 110.94966 | 37109 ft | 624 kts | 104° |
| 2026-04-27 14:48 | 23.37208 | 111.04178 | 37117 ft | 625 kts | 103° |
| 2026-04-27 14:48 | 23.34293 | 111.18007 | 37111 ft | 625 kts | 103° |
| 2026-04-27 14:49 | 23.32385 | 111.27237 | 37114 ft | 625 kts | 103° |
| 2026-04-27 14:49 | 23.30495 | 111.36562 | 37121 ft | 642 kts | 103° |
| 2026-04-27 14:50 | 23.29524 | 111.41345 | 37107 ft | 654 kts | 103° |
| 2026-04-27 14:50 | 23.28529 | 111.46217 | 37110 ft | 666 kts | 103° |
| 2026-04-27 14:50 | 23.27509 | 111.51175 | 37107 ft | 677 kts | 104° |
| 2026-04-27 14:50 | 23.26465 | 111.56208 | 37091 ft | 688 kts | 104° |
| 2026-04-27 14:51 | 23.25386 | 111.61347 | 36695 ft | 706 kts | 104° |
| 2026-04-27 14:51 | 23.24283 | 111.66536 | 36181 ft | 702 kts | 104° |
| 2026-04-27 14:51 | 23.23181 | 111.71679 | 35685 ft | 695 kts | 104° |
| 2026-04-27 14:51 | 23.22085 | 111.76778 | 35182 ft | 692 kts | 104° |
| 2026-04-27 14:52 | 23.20995 | 111.81869 | 34745 ft | 688 kts | 104° |
| 2026-04-27 14:52 | 23.19934 | 111.86868 | 35018 ft | 673 kts | 104° |
| 2026-04-27 14:52 | 23.18898 | 111.91803 | 35165 ft | 661 kts | 103° |
| 2026-04-27 14:52 | 23.17886 | 111.96639 | 35596 ft | 652 kts | 103° |
| 2026-04-27 14:53 | 23.16915 | 112.01342 | 34153 ft | 604 kts | 103° |
| 2026-04-27 14:53 | 23.16060 | 112.05472 | 34656 ft | 524 kts | 102° |
| 2026-04-27 14:53 | 23.15282 | 112.09215 | 34177 ft | 499 kts | 102° |
| 2026-04-27 14:53 | 23.14519 | 112.12900 | 33692 ft | 500 kts | 102° |
| 2026-04-27 14:54 | 23.13762 | 112.16549 | 34681 ft | 480 kts | 99° |
| 2026-04-27 14:54 | 23.13040 | 112.20025 | 34820 ft | 472 kts | 103° |
| 2026-04-27 14:54 | 23.12290 | 112.23602 | 34216 ft | 499 kts | 103° |
| 2026-04-27 14:54 | 23.11515 | 112.27284 | 33555 ft | 513 kts | 103° |
| 2026-04-27 14:55 | 23.10715 | 112.31081 | 32848 ft | 519 kts | 103° |
| 2026-04-27 14:55 | 23.09906 | 112.34920 | 32060 ft | 523 kts | 103° |
| 2026-04-27 14:55 | 23.09091 | 112.38772 | 31266 ft | 524 kts | 103° |
| 2026-04-27 14:55 | 23.08261 | 112.42687 | 30440 ft | 542 kts | 104° |
| 2026-04-27 14:56 | 23.07422 | 112.46728 | 29591 ft | 553 kts | 101° |
| 2026-04-27 14:56 | 23.06853 | 112.50868 | 28732 ft | 557 kts | 95° |
| 2026-04-27 14:56 | 23.06566 | 112.55077 | 27864 ft | 559 kts | 93° |
| 2026-04-27 14:56 | 23.06294 | 112.59297 | 26995 ft | 562 kts | 93° |
| 2026-04-27 14:57 | 23.06012 | 112.63583 | 26111 ft | 584 kts | 92° |
| 2026-04-27 14:57 | 23.05716 | 112.68064 | 25188 ft | 603 kts | 92° |
| 2026-04-27 14:57 | 23.05408 | 112.72617 | 24249 ft | 604 kts | 93° |
| 2026-04-27 14:57 | 23.05095 | 112.77150 | 23315 ft | 599 kts | 93° |
| 2026-04-27 14:58 | 23.04781 | 112.81636 | 22396 ft | 594 kts | 93° |
| 2026-04-27 14:58 | 23.04467 | 112.86085 | 21474 ft | 588 kts | 93° |
| 2026-04-27 14:58 | 23.04155 | 112.90494 | 20547 ft | 583 kts | 93° |
| 2026-04-27 14:58 | 23.03846 | 112.94861 | 19621 ft | 577 kts | 93° |
| 2026-04-27 14:59 | 23.03544 | 112.99188 | 18695 ft | 572 kts | 93° |
| 2026-04-27 14:59 | 23.03250 | 113.03472 | 17796 ft | 567 kts | 92° |
| 2026-04-27 14:59 | 23.02961 | 113.07726 | 16895 ft | 563 kts | 92° |
| 2026-04-27 14:59 | 23.02669 | 113.11940 | 16002 ft | 558 kts | 92° |
| 2026-04-27 15:00 | 23.02375 | 113.16122 | 15116 ft | 553 kts | 93° |
| 2026-04-27 15:00 | 23.01805 | 113.20230 | 14229 ft | 548 kts | 107° |
| 2026-04-27 15:00 | 23.00733 | 113.24142 | 13115 ft | 526 kts | 109° |
| 2026-04-27 15:00 | 22.99740 | 113.27719 | 13848 ft | 459 kts | 109° |
| 2026-04-27 15:01 | 22.98903 | 113.30769 | 13888 ft | 399 kts | 109° |
| 2026-04-27 15:01 | 22.98076 | 113.33641 | 13122 ft | 398 kts | 110° |
| 2026-04-27 15:01 | 22.97228 | 113.36487 | 12355 ft | 395 kts | 110° |
| 2026-04-27 15:01 | 22.96382 | 113.39313 | 11592 ft | 392 kts | 110° |
| 2026-04-27 15:02 | 22.95549 | 113.42118 | 10877 ft | 388 kts | 110° |
| 2026-04-27 15:02 | 22.94743 | 113.44877 | 10176 ft | 375 kts | 110° |
| 2026-04-27 15:02 | 22.93981 | 113.47528 | 9799 ft | 360 kts | 109° |
| 2026-04-27 15:02 | 22.93261 | 113.50048 | 9659 ft | 341 kts | 110° |
| 2026-04-27 15:03 | 22.92578 | 113.52443 | 9531 ft | 321 kts | 110° |
| 2026-04-27 15:03 | 22.91940 | 113.54679 | 9033 ft | 304 kts | 110° |
| 2026-04-27 15:03 | 22.91317 | 113.56849 | 8249 ft | 299 kts | 110° |
| 2026-04-27 15:03 | 22.90706 | 113.58958 | 7498 ft | 294 kts | 110° |
| 2026-04-27 15:04 | 22.90084 | 113.61089 | 6753 ft | 298 kts | 110° |
| 2026-04-27 15:04 | 22.89469 | 113.63206 | 6001 ft | 290 kts | 110° |
| 2026-04-27 15:04 | 22.88872 | 113.65267 | 5244 ft | 283 kts | 109° |
| 2026-04-27 15:04 | 22.88108 | 113.67173 | 4604 ft | 269 kts | 128° |
| 2026-04-27 15:05 | 22.86798 | 113.68482 | 4239 ft | 247 kts | 151° |
| 2026-04-27 15:05 | 22.85330 | 113.69307 | 3965 ft | 229 kts | 154° |
| 2026-04-27 15:05 | 22.83952 | 113.70069 | 3722 ft | 215 kts | 154° |
| 2026-04-27 15:05 | 22.82654 | 113.70784 | 3613 ft | 207 kts | 154° |
| 2026-04-27 15:06 | 22.81372 | 113.71489 | 3409 ft | 206 kts | 154° |
| 2026-04-27 15:06 | 22.80100 | 113.72188 | 3158 ft | 205 kts | 154° |
| 2026-04-27 15:06 | 22.78824 | 113.72888 | 2893 ft | 206 kts | 154° |
| 2026-04-27 15:06 | 22.77550 | 113.73588 | 2629 ft | 205 kts | 154° |
| 2026-04-27 15:07 | 22.76281 | 113.74286 | 2365 ft | 204 kts | 154° |
| 2026-04-27 15:07 | 22.75018 | 113.74979 | 2099 ft | 202 kts | 153° |
| 2026-04-27 15:07 | 22.73808 | 113.75643 | 1844 ft | 185 kts | 153° |
| 2026-04-27 15:07 | 22.72731 | 113.76234 | 1650 ft | 160 kts | 153° |
| 2026-04-27 15:08 | 22.71821 | 113.76734 | 1422 ft | 136 kts | 153° |
| 2026-04-27 15:08 | 22.71021 | 113.77173 | 1255 ft | 123 kts | 153° |
| 2026-04-27 15:08 | 22.70271 | 113.77584 | 1098 ft | 119 kts | 153° |
| 2026-04-27 15:08 | 22.69539 | 113.77986 | 955 ft | 118 kts | 152° |
| 2026-04-27 15:09 | 22.68804 | 113.78390 | 809 ft | 118 kts | 153° |
| 2026-04-27 15:09 | 22.68068 | 113.78793 | 656 ft | 119 kts | 152° |
| 2026-04-27 15:09 | 22.67324 | 113.79201 | 507 ft | 120 kts | 153° |
| 2026-04-27 15:09 | 22.66578 | 113.79612 | 350 ft | 120 kts | 151° |
| 2026-04-27 15:10 | 22.65832 | 113.80028 | 170 ft | 121 kts | 150° |
| 2026-04-27 15:10 | 22.65085 | 113.80435 | 22 ft | 117 kts | 152° |
| 2026-04-27 15:10 | 22.64488 | 113.80762 | 14 ft | 72 kts | 154° |
| 2026-04-27 15:10 | 22.64157 | 113.80939 | 14 ft | 43 kts | 154° |
| 2026-04-27 15:11 | 22.63939 | 113.81051 | 15 ft | 30 kts | 167° |
| 2026-04-27 15:11 | 22.63745 | 113.81055 | 15 ft | 29 kts | 184° |
| 2026-04-27 15:11 | 22.63635 | 113.80907 | 13 ft | 25 kts | 244° |
| 2026-04-27 15:11 | 22.63566 | 113.80761 | 14 ft | 17 kts | 240° |
| 2026-04-27 15:12 | 22.63496 | 113.80758 | 15 ft | 7 kts | 169° |
| 2026-04-27 15:12 | 22.63486 | 113.80762 | 15 ft | 0 kts | 161° |